Pagrindinis puslapis
METAR-TAF:

METAR-TAF

Oro uostai :

Basra, Irakas

platuma: 30-32-56N, ilguma: 47-39-45E, Aukštis: 1 m

Dabartinis oras

Ataskaita buvo paskelbta 42 minutes, ne 18:00 UTC
Vėjas 8 kt iš Pietryčių
Temperatūra 29°C
Drėgmė 35%
Slėgis 1012 hPa
Matomumas 10 km arba daugiau
Mažai debesys ne aukštis 4000 ft
Su prošvaistėmis ne aukštis 10000 ft

METAR: ORMM 131800Z 13008KT 9999 FEW040 BKN100 29/12 Q1012 NOSIG

Laikas: 21:42 (18:42 UTC)

Prognozė

Ataskaita buvo paskelbta 2 valandos ir 42 minutes, ne 16:00 UTC
Prognozė galioja nuo 13 metu 18 UTC su 14 metu 18 UTC
Vėjas 8 kt iš Rytų/Pietryčių
Matomumas 10 km arba daugiau
Mažai debesys ne aukštis 4000 ft
Su prošvaistėmis ne aukštis 10000 ft
Tapsmas
nuo 13 metu 22 UTC su 13 metu 24 UTC
Vėjas 5 kt iš Vakarų

TAF: ORMM 131600Z 1318/1418 11008KT 9999 FEW040 BKN100 BECMG 1322/1324 27005KT

Orai ataskaitas ir orų prognozės (METAR, TAF).

turimą stotys yra geltonos ir raudonos taškus žemėlapyje.

Perkelti pele per norėdami pamatyti stoties vardą.

Tada spustelėkite, norėdami matyti oro stebėjimo ir prognozės.

Norėdami pakeisti žemėlapį: spustelėkite ant žalios mygtukų su juodo kryžiaus žemyn,; žalią mygtuką su brūkšneliu, jei norite nutolinti; arba žalių rodyklių gretimoms žemėlapius.


METAR-TAF: